»·PEaware :: N7524R KGPI-KSUN

N7524R :: KGPI-KSUN

FLIGHT INFORMATION

Flight Status: Arrived
Operator: Privately registered:
United States
More flights under this callsign
Pilot: Maxine G. (31135)
Aircraft: BEECH AIRCRAFT SUPER KING AIR 350
(B350)
More flights by this aircraft type
Origin: KGPI Glacier Park Intl
United States
Destination: KSUN Friedman Meml
United States
More flights between these airports :: More routes between these airports
Route: GPI1 SKOTT MSO V231 LKT HLE
File this flight plan on PilotEdge
Remarks:
Altitude:
(Current/Filed)
17,000ft
Speed:
(Current/Filed)
469kts
Departed: 23-Aug-21 09:29 PM
Arrived: 23-Aug-21 10:37 PM
Distance/Time
Traveled:
288nm/1:08
Distance/Time
To Go:
Arrived

Flight Plot

Page will automatically refresh every two minutes.

Flight plan parsing failed; only flown route is shown


Map Options




Map Legend


Flown Route
Filed Route
Departure Airport
Arrival Airport
Navaid (VOR, NDB)
Fix

Horizontal Profiles

Position Reports

Time Latitude Longitude Heading Altitude Ground
Speed
23-Aug-21 21:07 48.309592 -114.249858 4 2970ft 0kts
23-Aug-21 21:08 48.309592 -114.249858 4 2970ft 0kts
23-Aug-21 21:09 48.309592 -114.249858 4 2970ft 0kts
23-Aug-21 21:10 48.309592 -114.249858 4 2970ft 0kts
23-Aug-21 21:14 48.309758 -114.249838 4 2971ft 0kts
23-Aug-21 21:15 48.309758 -114.249838 4 2971ft 0kts
23-Aug-21 21:16 48.309764 -114.249838 4 2971ft 0kts
23-Aug-21 21:17 48.309764 -114.249838 4 2971ft 0kts
23-Aug-21 21:18 48.309764 -114.249838 4 2971ft 0kts
23-Aug-21 21:19 48.309764 -114.249838 4 2971ft 0kts
23-Aug-21 21:20 48.309764 -114.249838 4 2971ft 0kts
23-Aug-21 21:21 48.309764 -114.249838 4 2971ft 0kts
23-Aug-21 21:22 48.309764 -114.249838 4 2971ft 0kts
23-Aug-21 21:23 48.309764 -114.249838 4 2971ft 0kts
23-Aug-21 21:24 48.309764 -114.249838 4 2971ft 0kts
23-Aug-21 21:25 48.311349 -114.250703 312 2971ft 14kts
23-Aug-21 21:26 48.315354 -114.248362 35 2974ft 23kts
23-Aug-21 21:27 48.317831 -114.247822 213 2975ft 36kts
23-Aug-21 21:28 48.290519 -114.276419 215 4320ft 157kts
23-Aug-21 21:29 48.252998 -114.313237 192 6677ft 164kts
23-Aug-21 21:30 48.209123 -114.295651 159 8900ft 169kts
23-Aug-21 21:31 48.164226 -114.270137 159 10973ft 174kts
23-Aug-21 21:32 48.117976 -114.244025 159 12890ft 180kts
23-Aug-21 21:33 48.070092 -114.217048 159 14665ft 185kts
23-Aug-21 21:34 48.020967 -114.189428 159 16304ft 190kts
23-Aug-21 21:35 47.967155 -114.160194 166 16964ft 236kts
23-Aug-21 21:36 47.894796 -114.153039 177 16945ft 277kts
23-Aug-21 21:37 47.813815 -114.147318 177 16938ft 293kts
23-Aug-21 21:38 47.731020 -114.141448 177 16936ft 298kts
23-Aug-21 21:39 47.647450 -114.135645 177 16935ft 300kts
23-Aug-21 21:40 47.563476 -114.129780 177 16935ft 301kts
23-Aug-21 21:41 47.479587 -114.123876 177 16935ft 301kts
23-Aug-21 21:42 47.395215 -114.117950 177 16935ft 301kts
23-Aug-21 21:43 47.311182 -114.112067 177 16935ft 301kts
23-Aug-21 21:44 47.227391 -114.106219 177 16935ft 301kts
23-Aug-21 21:45 47.143187 -114.100362 177 16935ft 301kts
23-Aug-21 21:46 47.059281 -114.094542 177 16935ft 301kts
23-Aug-21 21:47 46.973549 -114.088616 177 16935ft 302kts
23-Aug-21 21:48 46.887908 -114.083140 179 16935ft 302kts
23-Aug-21 21:49 46.803090 -114.083796 180 16935ft 302kts
23-Aug-21 21:50 46.718784 -114.084139 180 16935ft 301kts
23-Aug-21 21:51 46.634368 -114.084182 180 16935ft 301kts
23-Aug-21 21:52 46.549669 -114.084204 180 16935ft 301kts
23-Aug-21 21:53 46.465428 -114.084206 180 16935ft 302kts
23-Aug-21 21:54 46.380884 -114.084231 180 16935ft 302kts
23-Aug-21 21:55 46.296772 -114.084261 180 16935ft 302kts
23-Aug-21 21:56 46.212747 -114.084306 180 16935ft 302kts
23-Aug-21 21:57 46.128181 -114.084350 180 16935ft 302kts
23-Aug-21 21:58 46.043699 -114.084392 180 16935ft 302kts
23-Aug-21 21:59 45.959247 -114.084434 180 16935ft 302kts
23-Aug-21 22:00 45.874798 -114.084475 180 16935ft 302kts
23-Aug-21 22:01 45.790334 -114.084494 180 16935ft 302kts
23-Aug-21 22:02 45.706279 -114.084515 180 16935ft 302kts
23-Aug-21 22:03 45.621720 -114.084538 180 16935ft 302kts
23-Aug-21 22:04 45.536119 -114.084562 180 16935ft 302kts
23-Aug-21 22:05 45.450478 -114.084584 180 16935ft 302kts
23-Aug-21 22:06 45.365401 -114.084605 180 16935ft 302kts
23-Aug-21 22:07 45.280636 -114.084632 180 16935ft 302kts
23-Aug-21 22:08 45.195669 -114.084652 180 16935ft 302kts
23-Aug-21 22:09 45.109985 -114.084676 180 16935ft 303kts
23-Aug-21 22:10 45.025656 -114.084699 180 16935ft 302kts
23-Aug-21 22:11 44.941375 -114.091635 184 16935ft 302kts
23-Aug-21 22:12 44.857110 -114.100541 184 16935ft 302kts
23-Aug-21 22:13 44.773166 -114.108704 184 16935ft 302kts
23-Aug-21 22:14 44.689165 -114.116773 184 16935ft 302kts
23-Aug-21 22:15 44.604804 -114.124854 184 16935ft 302kts
23-Aug-21 22:16 44.520533 -114.132904 184 16935ft 302kts
23-Aug-21 22:17 44.435927 -114.140963 184 16935ft 302kts
23-Aug-21 22:18 44.351727 -114.148961 184 16935ft 302kts
23-Aug-21 22:19 44.267064 -114.156978 184 16935ft 302kts
23-Aug-21 22:20 44.182524 -114.164962 184 16935ft 302kts
23-Aug-21 22:21 44.097804 -114.172939 184 16935ft 302kts
23-Aug-21 22:22 44.013296 -114.180874 184 16926ft 303kts
23-Aug-21 22:23 43.928427 -114.188631 184 16926ft 303kts
23-Aug-21 22:24 43.846371 -114.196257 184 14224ft 292kts
23-Aug-21 22:25 43.773461 -114.203042 184 13931ft 253kts
23-Aug-21 22:26 43.701125 -114.209708 184 13908ft 259kts
23-Aug-21 22:27 43.628713 -114.216448 184 13018ft 259kts
23-Aug-21 22:28 43.558535 -114.222920 190 12305ft 248kts
23-Aug-21 22:29 43.491910 -114.237878 229 10942ft 237kts
23-Aug-21 22:30 43.441181 -114.280603 235 10996ft 215kts
23-Aug-21 22:31 43.382058 -114.307691 175 10470ft 278kts
23-Aug-21 22:32 43.354433 -114.235334 44 10952ft 261kts
23-Aug-21 22:33 43.420190 -114.233676 350 7617ft 205kts
23-Aug-21 22:34 43.460690 -114.253097 323 6204ft 118kts
23-Aug-21 22:35 43.487508 -114.279510 321 5499ft 114kts
23-Aug-21 22:36 43.503926 -114.295720 312 5290ft 12kts
23-Aug-21 22:37 43.504914 -114.298165 325 5296ft 12kts
23-Aug-21 22:38 43.507428 -114.301583 177 5306ft 7kts
23-Aug-21 22:39 43.507040 -114.301428 164 5305ft 0kts
23-Aug-21 22:40 43.507040 -114.301428 164 5305ft 0kts

Navigation Log

Ident Type
Flight plan parsing failed, navigation log unavailable